Aviation Digital Data Service (ADDS)

Output produced by METARs form (0448 UTC 22 February 2018)
found at http://bcaws.aviationweather.gov/adds/metars/
 
METAR text: KMOD 220353Z 00000KT 10SM CLR 08/M04 A3016 RMK AO2 SLP214 T00831039
Conditions at: KMOD (MODESTO , CA, US) observed 0353 UTC 22 February 2018
Temperature: 8.3°C (47°F)
Dewpoint: -3.9°C (25°F) [RH = 42%]
Pressure (altimeter): 30.16 inches Hg (1021.4 mb)
[Sea-level pressure: 1021.4 mb]
Winds: calm
Visibility: 10 or more miles (16+ km)
Ceiling: at least 12,000 feet AGL
Clouds: sky clear below 12,000 feet AGL
Weather: no significant weather observed at this time